createdAt,value
2022-12-15T00:07:56.147Z,31.20
2022-12-15T00:16:37.777Z,20.70
2022-12-15T00:25:19.427Z,22.20
2022-12-15T00:34:00.848Z,25.40
2022-12-15T00:42:23.717Z,31.70
2022-12-15T00:50:52.595Z,32.80
2022-12-15T00:59:35.934Z,30.60
2022-12-15T01:08:21.030Z,31.50
2022-12-15T01:17:02.768Z,26.40
2022-12-15T01:25:27.752Z,26.30
2022-12-15T01:33:53.890Z,36.50
2022-12-15T01:42:16.893Z,37.70
2022-12-15T01:50:44.126Z,43.40
2022-12-15T01:59:12.283Z,39.90
2022-12-15T02:07:35.183Z,37.90
2022-12-15T02:16:38.679Z,41.80
2022-12-15T02:25:07.746Z,39.60
2022-12-15T02:33:33.297Z,35.70
2022-12-15T02:41:56.440Z,41.90
2022-12-15T02:50:39.997Z,46.30
2022-12-15T02:59:35.446Z,58.80
2022-12-15T03:07:58.897Z,54.40
2022-12-15T03:16:22.446Z,45.10
2022-12-15T03:24:45.413Z,39.50
2022-12-15T03:33:08.779Z,36.40
2022-12-15T03:41:31.675Z,54.30
2022-12-15T03:49:54.548Z,48.80
2022-12-15T03:58:17.604Z,46.00
2022-12-15T04:06:40.483Z,49.10
2022-12-15T04:15:03.614Z,41.20
2022-12-15T04:23:26.696Z,52.60
2022-12-15T04:32:08.589Z,62.60
2022-12-15T04:40:50.179Z,46.90
2022-12-15T04:49:31.774Z,39.60
2022-12-15T04:58:13.333Z,42.80
2022-12-15T05:06:55.259Z,59.00
2022-12-15T05:15:38.595Z,63.00
2022-12-15T05:24:20.315Z,49.60
2022-12-15T05:32:43.214Z,38.70
2022-12-15T05:41:06.183Z,50.00
2022-12-15T05:49:29.169Z,57.50
2022-12-15T05:57:53.456Z,67.00
2022-12-15T06:06:16.603Z,41.00
2022-12-15T06:14:39.549Z,56.00
2022-12-15T06:23:02.367Z,69.20
2022-12-15T06:31:26.994Z,48.40
2022-12-15T06:39:50.179Z,51.30
2022-12-15T06:48:13.102Z,56.90
2022-12-15T06:56:36.287Z,95.10
2022-12-15T07:04:59.468Z,71.60
2022-12-15T07:13:22.579Z,63.10
2022-12-15T07:21:45.558Z,56.20
2022-12-15T07:30:09.088Z,79.70
2022-12-15T07:38:32.327Z,65.50
2022-12-15T07:46:55.820Z,78.80
2022-12-15T07:55:37.234Z,55.80
2022-12-15T08:04:02.735Z,67.70
2022-12-15T08:12:27.800Z,73.40
2022-12-15T08:20:51.341Z,91.50
2022-12-15T08:38:02.278Z,297.70
2022-12-15T08:46:33.906Z,122.40
2022-12-15T08:54:56.946Z,187.30
2022-12-15T09:03:19.894Z,102.40
2022-12-15T09:11:42.890Z,100.10
2022-12-15T09:20:06.768Z,113.10
2022-12-15T09:28:32.225Z,126.30
2022-12-15T09:36:55.379Z,145.80
2022-12-15T09:45:22.461Z,76.20
2022-12-15T09:53:55.838Z,93.60
2022-12-15T10:02:28.817Z,58.60
2022-12-15T10:10:51.854Z,64.80
2022-12-15T10:19:24.347Z,77.70
2022-12-15T10:28:07.995Z,68.80
2022-12-15T10:36:30.890Z,65.60
2022-12-15T10:44:56.608Z,90.10
2022-12-15T10:53:50.496Z,81.50
2022-12-15T11:02:24.569Z,84.50
2022-12-15T11:11:17.599Z,79.30
2022-12-15T11:19:54.019Z,90.30
2022-12-15T11:28:28.724Z,73.60
2022-12-15T11:37:04.115Z,100.60
2022-12-15T11:46:05.779Z,92.50
2022-12-15T11:54:39.847Z,281.60
2022-12-15T12:03:25.435Z,214.70
2022-12-15T12:12:05.852Z,423.80
2022-12-15T12:20:42.204Z,191.70
2022-12-15T12:29:13.329Z,138.90
2022-12-15T12:46:44.602Z,151.40
2022-12-15T12:55:26.447Z,174.60
2022-12-15T13:04:34.113Z,130.20
2022-12-15T13:13:01.432Z,156.40
2022-12-15T13:21:44.234Z,131.80
2022-12-15T13:30:07.233Z,245.60
2022-12-15T13:38:56.620Z,141.20
2022-12-15T13:47:28.847Z,164.80
2022-12-15T13:56:06.968Z,125.60
2022-12-15T14:04:29.872Z,130.60
2022-12-15T14:12:57.346Z,117.40
2022-12-15T14:21:27.071Z,154.80
2022-12-15T14:29:50.778Z,115.40
2022-12-15T14:38:22.326Z,113.70
2022-12-15T14:46:49.712Z,92.60
2022-12-15T14:55:23.475Z,106.20
2022-12-15T15:03:07.202Z,213.30
2022-12-15T15:03:57.068Z,71.80
2022-12-15T15:12:23.032Z,81.60
2022-12-15T15:20:58.066Z,105.60
2022-12-15T15:29:38.684Z,116.60
2022-12-15T15:38:07.500Z,503.40
2022-12-15T15:46:34.767Z,782.90
2022-12-15T15:54:59.625Z,273.40
2022-12-15T16:03:22.720Z,313.10
2022-12-15T16:11:47.128Z,158.40
2022-12-15T16:20:13.128Z,164.30
2022-12-15T16:28:37.044Z,148.40
2022-12-15T16:37:00.346Z,295.20
2022-12-15T16:45:25.680Z,208.60
2022-12-15T16:53:48.667Z,100.80
2022-12-15T17:02:27.786Z,106.70
2022-12-15T17:10:51.679Z,136.50
2022-12-15T17:19:20.707Z,137.60
2022-12-15T17:27:45.907Z,111.20
2022-12-15T17:36:19.222Z,122.00
2022-12-15T17:44:42.206Z,197.70
2022-12-15T17:53:06.590Z,127.20
2022-12-15T18:01:29.567Z,97.20
2022-12-15T18:09:53.231Z,111.50
2022-12-15T18:18:18.135Z,76.90
2022-12-15T18:26:41.029Z,132.70
2022-12-15T18:35:15.168Z,117.30
2022-12-15T18:43:38.259Z,121.20
2022-12-15T18:52:01.139Z,100.50
2022-12-15T19:00:30.293Z,99.10
2022-12-15T19:08:53.502Z,78.40
2022-12-15T19:17:40.116Z,79.40
2022-12-15T19:26:03.411Z,156.80
2022-12-15T19:34:28.372Z,128.40
2022-12-15T19:42:55.535Z,113.90
2022-12-15T19:51:23.145Z,100.70
2022-12-15T19:59:46.131Z,94.30
2022-12-15T20:08:18.127Z,85.90
2022-12-15T20:16:43.351Z,73.00
2022-12-15T20:25:06.564Z,97.00
2022-12-15T20:33:29.739Z,97.00
2022-12-15T20:41:54.719Z,158.50
2022-12-15T20:50:21.767Z,136.60
2022-12-15T20:58:46.130Z,196.40
2022-12-15T21:07:12.477Z,243.90
2022-12-15T21:15:35.286Z,224.30
2022-12-15T21:23:59.996Z,208.50
2022-12-15T21:32:22.867Z,189.20
2022-12-15T21:40:45.752Z,198.70
2022-12-15T21:49:18.617Z,232.10
2022-12-15T21:57:41.577Z,216.60
2022-12-15T22:06:04.677Z,251.00
2022-12-15T22:14:33.973Z,166.80
2022-12-15T22:22:56.859Z,177.40
2022-12-15T22:31:19.988Z,176.60
2022-12-15T22:39:43.119Z,144.50
2022-12-15T22:48:06.086Z,188.90
2022-12-15T22:56:37.394Z,184.40
2022-12-15T23:05:00.735Z,201.70
2022-12-15T23:13:23.727Z,173.50
2022-12-15T23:21:46.789Z,193.50
2022-12-15T23:30:10.066Z,201.90
2022-12-15T23:38:33.084Z,184.40
2022-12-15T23:47:01.486Z,191.00
2022-12-15T23:55:24.491Z,182.50
